Time;durP1;ratioP1;P1;durP2;ratioP2;P2;SDS_P1;SDS_P2;PMS_P1;PMS_P2;Temp;Humidity;BMP_temperature;BMP_pressure;BME280_temperature;BME280_humidity;BME280_pressure;Samples;Min_cycle;Max_cycle;Signal;HPM_P1;HPM_P2
2021/12/23 00:00:42;;;;;;;28.02;14.23;;;;;;;0.68;70.29;101642.47;5113378;28;20072;-68
2021/12/23 00:03:07;;;;;;;22.55;12.88;;;;;;;0.63;71.09;101642.97;5113568;28;20020;-68
2021/12/23 00:05:33;;;;;;;26.55;12.65;;;;;;;0.70;70.72;101647.78;5113548;28;20028;-67
2021/12/23 00:07:59;;;;;;;21.73;12.60;;;;;;;0.79;70.50;101643.16;5113720;28;20102;-67
2021/12/23 00:10:24;;;;;;;21.90;13.15;;;;;;;0.79;69.83;101639.66;5094922;28;20491;-67
2021/12/23 00:12:49;;;;;;;22.35;12.98;;;;;;;0.78;70.01;101627.47;5113252;28;20143;-67
2021/12/23 00:18:16;;;;;;;22.10;12.85;;;;;;;0.78;70.80;101606.66;5113833;28;20039;-67
2021/12/23 00:23:24;;;;;;;22.77;13.05;;;;;;;0.78;69.73;101599.75;5113748;28;20484;-67
2021/12/23 00:25:52;;;;;;;24.17;13.05;;;;;;;0.72;69.75;101596.75;5095352;28;20028;-67
2021/12/23 00:28:18;;;;;;;28.80;14.82;;;;;;;0.67;69.71;101593.84;5113693;28;20028;-67
2021/12/23 00:30:44;;;;;;;20.98;13.02;;;;;;;0.53;70.27;101592.09;5113619;28;20396;-68
2021/12/23 00:33:09;;;;;;;24.27;13.00;;;;;;;0.60;70.80;101580.38;5113383;28;20023;-68
2021/12/23 00:35:36;;;;;;;24.08;12.95;;;;;;;0.62;70.41;101574.47;5113309;28;20028;-68
2021/12/23 00:38:09;;;;;;;23.60;13.15;;;;;;;0.53;70.26;101555.69;5113376;28;20365;-67
2021/12/23 00:40:34;;;;;;;27.00;14.30;;;;;;;0.39;70.89;101546.16;5112904;28;20593;-67
2021/12/23 00:43:00;;;;;;;22.95;13.27;;;;;;;0.31;71.62;101562.97;5113241;28;20106;-67
2021/12/23 00:45:25;;;;;;;25.23;14.43;;;;;;;0.21;71.65;101577.03;5113326;28;20024;-67
2021/12/23 00:47:51;;;;;;;25.33;14.05;;;;;;;0.24;71.66;101578.16;5113368;28;20026;-67
2021/12/23 00:50:16;;;;;;;27.00;13.63;;;;;;;0.24;71.33;101570.34;5113309;28;20020;-67
2021/12/23 00:52:43;;;;;;;23.70;13.95;;;;;;;0.21;71.41;101571.84;5113428;28;20032;-67
2021/12/23 00:55:11;;;;;;;24.33;12.27;;;;;;;0.29;72.13;101567.16;5113235;28;20011;-67
2021/12/23 00:57:39;;;;;;;24.60;13.82;;;;;;;0.42;71.70;101564.50;5112902;28;20130;-67
2021/12/23 01:00:09;;;;;;;23.77;13.88;;;;;;;0.37;71.02;101553.84;5113009;28;20088;-68
2021/12/23 01:02:35;;;;;;;22.45;12.93;;;;;;;0.40;70.76;101561.84;5113197;28;20084;-67
2021/12/23 01:05:02;;;;;;;23.60;13.50;;;;;;;0.41;70.73;101555.81;5113165;28;20031;-67
2021/12/23 01:07:28;;;;;;;24.27;14.20;;;;;;;0.47;70.76;101570.91;5113199;28;20051;-67
2021/12/23 01:09:54;;;;;;;24.42;13.32;;;;;;;0.51;70.72;101572.88;5112842;28;20107;-67
2021/12/23 01:12:28;;;;;;;24.83;13.80;;;;;;;0.60;70.94;101582.97;5113030;28;20127;-67
2021/12/23 01:14:58;;;;;;;23.75;12.80;;;;;;;0.64;70.71;101569.34;5113071;28;20063;-67
2021/12/23 01:19:54;;;;;;;25.75;12.93;;;;;;;0.67;70.47;101573.06;5113036;28;20069;-67
2021/12/23 01:22:21;;;;;;;25.23;13.93;;;;;;;0.61;70.33;101569.19;5113341;28;20023;-67
2021/12/23 01:24:47;;;;;;;25.73;13.75;;;;;;;0.61;70.62;101553.59;5115936;28;20015;-67
2021/12/23 01:27:12;;;;;;;25.92;14.18;;;;;;;0.66;71.25;101545.25;5116498;28;20380;-67
2021/12/23 01:29:38;;;;;;;24.77;14.02;;;;;;;0.70;70.94;101544.63;5116491;28;20020;-67
2021/12/23 01:32:06;;;;;;;22.77;13.45;;;;;;;0.74;70.42;101538.81;5116211;28;20119;-67
2021/12/23 01:34:33;;;;;;;23.20;13.02;;;;;;;0.68;70.29;101540.13;5097830;28;20034;-67
2021/12/23 01:37:00;;;;;;;24.90;14.05;;;;;;;0.61;70.68;101537.97;5116035;28;20035;-67
2021/12/23 01:39:25;;;;;;;22.98;13.80;;;;;;;0.52;70.89;101543.50;5115926;28;20027;-67
2021/12/23 01:41:51;;;;;;;24.42;13.25;;;;;;;0.48;71.12;101516.41;5116216;28;20133;-66
2021/12/23 01:44:16;;;;;;;29.98;16.55;;;;;;;0.35;71.32;101519.06;5116213;28;20384;-67
2021/12/23 01:46:42;;;;;;;29.02;14.52;;;;;;;0.32;71.67;101523.16;5116289;28;20028;-67
2021/12/23 01:49:08;;;;;;;26.77;13.55;;;;;;;0.29;71.72;101523.84;5116110;28;20062;-67
2021/12/23 01:51:34;;;;;;;24.13;12.38;;;;;;;0.34;71.22;101529.34;5116056;28;20069;-67
2021/12/23 01:53:59;;;;;;;24.10;14.50;;;;;;;0.30;71.60;101514.34;5116177;28;20023;-67
2021/12/23 01:56:25;;;;;;;24.75;14.27;;;;;;;0.29;71.88;101507.38;5115867;28;20440;-67
2021/12/23 01:58:50;;;;;;;23.08;13.38;;;;;;;0.25;71.83;101509.75;5115946;28;20042;-67
2021/12/23 02:01:16;;;;;;;26.35;14.15;;;;;;;0.27;71.99;101509.00;5116012;28;20027;-67
2021/12/23 02:03:42;;;;;;;22.98;13.38;;;;;;;0.23;71.91;101503.59;5115845;28;20031;-67
2021/12/23 02:06:09;;;;;;;22.95;13.38;;;;;;;0.24;72.53;101499.28;5115691;28;20031;-67
2021/12/23 02:08:35;;;;;;;24.25;13.70;;;;;;;0.18;72.02;101486.81;5115697;28;20066;-66
2021/12/23 02:11:04;;;;;;;28.95;14.52;;;;;;;0.14;72.40;101490.03;5115766;28;20059;-66
2021/12/23 02:13:30;;;;;;;25.55;13.70;;;;;;;0.08;72.05;101483.53;5115679;28;20048;-69
2021/12/23 02:15:56;;;;;;;24.10;13.75;;;;;;;0.00;73.00;101483.06;5115910;28;20015;-69
2021/12/23 02:18:21;;;;;;;20.63;12.27;;;;;;;-0.04;73.15;101489.75;5115531;28;20497;-69
2021/12/23 02:20:47;;;;;;;24.13;13.38;;;;;;;-0.04;73.10;101488.88;5115658;28;20106;-67
2021/12/23 02:23:12;;;;;;;26.92;15.00;;;;;;;-0.15;73.24;101479.47;5115431;28;20029;-67
2021/12/23 02:25:38;;;;;;;27.77;14.32;;;;;;;-0.23;73.77;101478.97;5115371;28;20023;-67
2021/12/23 02:28:07;;;;;;;24.13;13.38;;;;;;;-0.21;73.80;101468.69;5115582;28;20472;-67
2021/12/23 02:30:35;;;;;;;25.95;14.02;;;;;;;-0.17;74.01;101475.88;5115343;28;20027;-67
2021/12/23 02:33:01;;;;;;;24.63;13.93;;;;;;;-0.17;73.37;101470.69;5115396;28;20027;-67
2021/12/23 02:35:27;;;;;;;24.63;12.77;;;;;;;-0.19;73.40;101475.78;5114418;28;20020;-69
2021/12/23 02:37:53;;;;;;;25.77;14.48;;;;;;;-0.22;73.25;101478.19;5115207;28;20055;-67
2021/12/23 02:40:28;;;;;;;27.45;13.07;;;;;;;-0.23;73.57;101476.38;5114731;28;20465;-67
2021/12/23 02:42:56;;;;;;;27.70;16.10;;;;;;;-0.36;73.43;101492.88;5096770;28;20030;-67
2021/12/23 02:45:21;;;;;;;24.42;13.50;;;;;;;-0.34;74.08;101487.81;5115193;28;20430;-67
2021/12/23 02:47:47;;;;;;;20.15;11.88;;;;;;;-0.30;73.69;101490.69;5115027;28;20027;-67
2021/12/23 02:50:12;;;;;;;24.15;13.73;;;;;;;-0.32;73.96;101494.88;5114979;28;20069;-67
2021/12/23 02:52:38;;;;;;;25.02;13.52;;;;;;;-0.37;74.02;101491.09;5114874;28;20030;-67
2021/12/23 02:55:04;;;;;;;22.33;13.73;;;;;;;-0.37;73.76;101483.31;5114592;28;20383;-66
2021/12/23 02:57:34;;;;;;;25.33;13.50;;;;;;;-0.34;73.69;101474.81;5114414;28;20039;-67
2021/12/23 03:00:00;;;;;;;25.02;13.93;;;;;;;-0.41;73.85;101468.31;5114341;28;20064;-67
2021/12/23 03:02:26;;;;;;;24.55;12.55;;;;;;;-0.39;73.74;101452.84;5114596;28;20106;-67
2021/12/23 03:04:51;;;;;;;24.08;13.23;;;;;;;-0.38;73.85;101444.28;5096448;28;20111;-67
2021/12/23 03:07:18;;;;;;;22.75;13.10;;;;;;;-0.34;73.66;101443.66;5114600;28;20058;-67
2021/12/23 03:09:47;;;;;;;22.17;12.07;;;;;;;-0.34;73.71;101447.16;5114321;28;20093;-67
2021/12/23 03:12:13;;;;;;;25.45;13.20;;;;;;;-0.42;73.49;101447.47;5114677;28;20150;-66
2021/12/23 03:14:38;;;;;;;28.77;14.30;;;;;;;-0.54;74.00;101437.19;5114518;28;20139;-67
2021/12/23 03:17:04;;;;;;;23.25;12.68;;;;;;;-0.53;74.52;101437.28;5114405;28;20032;-66
2021/12/23 03:19:30;;;;;;;23.35;13.20;;;;;;;-0.54;74.29;101442.38;5114518;28;20031;-66
2021/12/23 03:21:55;;;;;;;25.55;13.82;;;;;;;-0.54;74.21;101439.78;5114683;28;20362;-67
2021/12/23 03:24:21;;;;;;;22.20;12.55;;;;;;;-0.57;73.96;101432.69;5114137;28;20024;-67
2021/12/23 03:26:46;;;;;;;24.05;12.45;;;;;;;-0.56;74.35;101428.38;5114182;28;20028;-66
2021/12/23 03:29:12;;;;;;;21.92;12.65;;;;;;;-0.57;74.10;101424.00;5114309;28;20031;-67
2021/12/23 03:31:39;;;;;;;24.80;13.93;;;;;;;-0.61;74.07;101415.09;5114362;28;20020;-67
2021/12/23 03:34:04;;;;;;;22.67;12.75;;;;;;;-0.57;74.34;101401.53;5114318;28;20038;-67
2021/12/23 03:36:31;;;;;;;23.35;12.73;;;;;;;-0.55;74.05;101392.16;5114075;28;20027;-66
2021/12/23 03:38:56;;;;;;;23.50;13.10;;;;;;;-0.57;74.14;101392.84;5114054;28;20408;-68
2021/12/23 03:41:22;;;;;;;20.58;11.32;;;;;;;-0.55;74.27;101394.75;5113902;28;20027;-68
2021/12/23 03:43:47;;;;;;;21.13;11.43;;;;;;;-0.56;74.33;101394.63;5114014;28;20102;-68
2021/12/23 03:46:13;;;;;;;22.67;12.45;;;;;;;-0.57;74.12;101393.75;5113514;28;20116;-68
2021/12/23 03:48:38;;;;;;;23.48;12.43;;;;;;;-0.55;74.85;101399.06;5113907;28;20046;-68
2021/12/23 03:51:03;;;;;;;24.95;13.60;;;;;;;-0.56;73.98;101381.66;5113791;28;20089;-68
2021/12/23 03:53:29;;;;;;;24.10;12.75;;;;;;;-0.61;74.37;101370.09;5113793;28;20036;-68
2021/12/23 03:55:54;;;;;;;23.85;13.13;;;;;;;-0.63;74.51;101363.94;5113173;28;20023;-68
2021/12/23 03:58:21;;;;;;;24.92;14.52;;;;;;;-0.73;74.96;101357.22;5095559;28;20127;-68
2021/12/23 04:00:47;;;;;;;24.75;13.85;;;;;;;-0.76;75.36;101336.28;5113572;28;20046;-68
2021/12/23 04:03:13;;;;;;;24.58;13.23;;;;;;;-0.83;75.64;101335.00;5113804;28;20023;-68
2021/12/23 04:05:38;;;;;;;29.52;14.20;;;;;;;-0.87;76.59;101340.78;5113677;28;20478;-68
2021/12/23 04:08:05;;;;;;;28.40;13.45;;;;;;;-0.94;76.54;101338.63;5113599;28;20103;-68
2021/12/23 04:10:31;;;;;;;23.70;12.95;;;;;;;-0.88;76.22;101356.25;5113493;28;20488;-68
2021/12/23 04:12:56;;;;;;;25.17;13.45;;;;;;;-0.85;76.32;101361.66;5113583;28;20063;-68
2021/12/23 04:15:22;;;;;;;25.48;13.80;;;;;;;-0.82;76.47;101354.94;5113501;28;20661;-68
2021/12/23 04:17:48;;;;;;;24.77;14.73;;;;;;;-0.78;76.35;101330.09;5113622;28;20024;-68
2021/12/23 04:20:22;;;;;;;29.50;15.10;;;;;;;-0.74;76.33;101323.41;5113667;28;20024;-68
2021/12/23 04:22:53;;;;;;;24.48;14.75;;;;;;;-0.72;76.14;101322.72;5113537;28;20480;-68
2021/12/23 04:25:22;;;;;;;26.38;15.02;;;;;;;-0.73;76.21;101344.25;5113287;28;20030;-68
2021/12/23 04:27:50;;;;;;;28.35;14.73;;;;;;;-0.75;76.55;101340.69;5113569;28;20024;-68
2021/12/23 04:30:17;;;;;;;28.95;14.18;;;;;;;-0.67;76.47;101331.69;5095198;28;20111;-68
2021/12/23 04:32:42;;;;;;;29.20;15.13;;;;;;;-0.60;75.88;101338.16;5113691;28;20103;-68
2021/12/23 04:35:09;;;;;;;24.33;13.95;;;;;;;-0.54;76.17;101336.84;5113362;28;20106;-68
2021/12/23 04:37:34;;;;;;;26.88;14.43;;;;;;;-0.54;76.41;101333.34;5113295;28;20024;-68
2021/12/23 04:40:00;;;;;;;28.50;16.35;;;;;;;-0.54;76.13;101322.97;5113045;28;20039;-68
2021/12/23 04:42:25;;;;;;;28.05;15.93;;;;;;;-0.49;75.79;101311.19;5113111;28;20408;-68
2021/12/23 04:44:52;;;;;;;30.77;16.20;;;;;;;-0.44;75.92;101316.66;5113197;28;20028;-68
2021/12/23 04:47:23;;;;;;;33.58;16.70;;;;;;;-0.44;75.84;101311.47;5095095;28;20024;-68
2021/12/23 04:49:48;;;;;;;29.33;16.33;;;;;;;-0.43;75.74;101305.47;5113165;28;20368;-68
2021/12/23 04:52:14;;;;;;;26.80;14.68;;;;;;;-0.42;75.87;101299.50;5113235;28;20035;-68
2021/12/23 04:54:39;;;;;;;31.95;18.17;;;;;;;-0.49;75.64;101308.59;5113271;28;20384;-68
2021/12/23 04:57:06;;;;;;;31.58;16.95;;;;;;;-0.49;76.12;101303.38;5113071;28;20043;-68
2021/12/23 04:59:32;;;;;;;33.20;17.13;;;;;;;-0.51;76.08;101305.91;5116321;28;20034;-68
2021/12/23 05:01:57;;;;;;;33.97;18.38;;;;;;;-0.51;76.04;101287.72;5117043;28;20430;-67
2021/12/23 05:04:23;;;;;;;31.80;16.52;;;;;;;-0.51;76.29;101286.84;5098770;28;20350;-68
2021/12/23 05:06:48;;;;;;;32.80;17.02;;;;;;;-0.50;76.33;101280.84;5117305;28;20026;-68
2021/12/23 05:09:14;;;;;;;32.17;16.80;;;;;;;-0.52;76.48;101280.72;5116861;28;20376;-68
2021/12/23 05:11:39;;;;;;;31.05;16.70;;;;;;;-0.53;76.48;101270.25;5116666;28;20024;-68
2021/12/23 05:14:05;;;;;;;31.02;16.10;;;;;;;-0.54;76.51;101268.47;5116808;28;20031;-68
2021/12/23 05:16:30;;;;;;;29.83;16.30;;;;;;;-0.59;76.68;101268.19;5116772;28;20032;-68
2021/12/23 05:18:56;;;;;;;31.45;16.25;;;;;;;-0.59;77.08;101278.56;5116741;28;20015;-68
2021/12/23 05:21:21;;;;;;;32.63;17.13;;;;;;;-0.55;76.58;101277.06;5116523;28;20055;-69
2021/12/23 05:23:47;;;;;;;35.05;18.20;;;;;;;-0.56;77.01;101278.78;5116680;28;20039;-68
2021/12/23 05:26:12;;;;;;;37.70;17.02;;;;;;;-0.52;76.51;101277.22;5116404;28;20027;-68
2021/12/23 05:28:38;;;;;;;34.28;15.88;;;;;;;-0.52;76.60;101277.22;5116459;28;20024;-67
2021/12/23 05:31:05;;;;;;;29.20;15.65;;;;;;;-0.51;77.07;101268.66;5116676;28;20032;-68
2021/12/23 05:33:31;;;;;;;32.88;16.98;;;;;;;-0.53;76.95;101260.78;5116414;28;20102;-68
2021/12/23 05:35:56;;;;;;;31.33;17.48;;;;;;;-0.52;77.17;101264.25;5116390;28;20119;-67
2021/12/23 05:38:23;;;;;;;33.28;17.23;;;;;;;-0.48;77.05;101263.66;5116279;28;20110;-67
2021/12/23 05:40:48;;;;;;;34.50;17.77;;;;;;;-0.47;77.18;101267.13;5116252;28;20027;-68
2021/12/23 05:43:14;;;;;;;33.42;17.23;;;;;;;-0.51;77.13;101263.47;5116229;28;20498;-67
2021/12/23 05:45:39;;;;;;;36.10;17.77;;;;;;;-0.48;76.90;101257.56;5116215;28;20384;-67
2021/12/23 05:48:05;;;;;;;32.40;16.90;;;;;;;-0.45;77.15;101245.66;5116147;28;20111;-67
2021/12/23 05:50:30;;;;;;;30.10;16.00;;;;;;;-0.38;76.46;101245.25;5097865;28;20019;-67
2021/12/23 05:52:59;;;;;;;34.58;17.10;;;;;;;-0.35;76.38;101241.94;5116245;28;20358;-67
2021/12/23 05:55:25;;;;;;;38.40;17.98;;;;;;;-0.33;76.68;101256.81;5115861;28;20507;-68
2021/12/23 05:57:51;;;;;;;39.28;18.95;;;;;;;-0.31;76.67;101252.59;5115708;28;20044;-67
2021/12/23 06:00:20;;;;;;;41.85;19.48;;;;;;;-0.33;76.38;101245.53;5115816;28;20058;-67
2021/12/23 06:02:46;;;;;;;35.28;17.73;;;;;;;-0.35;76.81;101240.22;5115841;28;20486;-67
2021/12/23 06:05:12;;;;;;;34.75;18.00;;;;;;;-0.34;76.97;101242.03;5116061;28;20030;-67
2021/12/23 06:07:39;;;;;;;34.70;16.30;;;;;;;-0.23;77.11;101253.06;5116179;28;20020;-67
2021/12/23 06:10:05;;;;;;;34.22;17.02;;;;;;;-0.17;76.55;101255.13;5115306;28;20039;-67
2021/12/23 06:12:31;;;;;;;34.35;17.92;;;;;;;-0.17;76.24;101258.66;5115438;28;20023;-67
2021/12/23 06:14:56;;;;;;;35.55;18.42;;;;;;;-0.21;76.83;101251.47;5115667;28;20028;-67
2021/12/23 06:17:23;;;;;;;35.08;17.00;;;;;;;-0.27;76.74;101254.56;5115775;28;20048;-67
2021/12/23 06:19:48;;;;;;;36.58;18.65;;;;;;;-0.29;76.90;101248.41;5115815;28;20042;-67
2021/12/23 06:22:14;;;;;;;34.00;16.63;;;;;;;-0.23;76.52;101254.75;5115345;28;20396;-67
2021/12/23 06:24:46;;;;;;;33.58;15.90;;;;;;;-0.28;76.46;101242.41;5115351;28;20509;-68
2021/12/23 06:27:11;;;;;;;37.30;17.52;;;;;;;-0.31;76.60;101223.13;5115357;28;20058;-68
2021/12/23 06:29:37;;;;;;;36.47;16.85;;;;;;;-0.23;76.50;101226.19;5115434;28;20465;-68
2021/12/23 06:32:03;;;;;;;35.85;17.88;;;;;;;-0.19;76.24;101218.69;5115545;28;20096;-67
2021/12/23 06:34:29;;;;;;;33.95;17.88;;;;;;;-0.23;76.36;101214.09;5115399;28;20038;-68
2021/12/23 06:36:55;;;;;;;34.78;17.10;;;;;;;-0.24;76.63;101219.22;5115072;28;20032;-67
2021/12/23 06:39:20;;;;;;;33.92;17.38;;;;;;;-0.28;76.78;101202.56;5115331;28;20103;-68
2021/12/23 06:41:46;;;;;;;36.63;17.23;;;;;;;-0.26;76.56;101207.06;5115120;28;20035;-68
2021/12/23 06:44:11;;;;;;;36.60;18.25;;;;;;;-0.26;76.50;101204.47;5114968;28;20106;-68
2021/12/23 06:46:37;;;;;;;33.80;17.25;;;;;;;-0.29;76.60;101205.97;5114833;28;20027;-67
2021/12/23 06:49:02;;;;;;;34.63;17.10;;;;;;;-0.33;76.79;101193.59;5114788;28;20016;-68
2021/12/23 06:51:29;;;;;;;34.80;16.60;;;;;;;-0.30;76.83;101193.75;5114616;28;20032;-67
2021/12/23 06:53:57;;;;;;;34.25;17.13;;;;;;;-0.30;76.86;101186.91;5114506;28;20066;-68
2021/12/23 06:56:23;;;;;;;36.83;17.88;;;;;;;-0.27;76.73;101186.16;5114418;28;20075;-67
2021/12/23 06:58:50;;;;;;;34.47;18.45;;;;;;;-0.30;76.88;101184.31;5114903;28;20484;-67
2021/12/23 07:01:21;;;;;;;35.38;16.80;;;;;;;-0.32;76.93;101185.91;5114815;28;20035;-68
2021/12/23 07:04:08;;;;;;;33.42;17.02;;;;;;;-0.30;77.83;101204.16;5114714;28;20031;-68
2021/12/23 07:06:35;;;;;;;34.15;16.90;;;;;;;-0.28;76.96;101202.56;5114855;28;20119;-67
2021/12/23 07:09:05;;;;;;;31.17;16.20;;;;;;;-0.30;77.18;101204.16;5114452;28;20027;-68
2021/12/23 07:11:32;;;;;;;35.25;17.15;;;;;;;-0.29;77.25;101199.06;5114554;28;20044;-67
2021/12/23 07:13:58;;;;;;;34.72;16.77;;;;;;;-0.26;77.38;101207.06;5114477;28;20023;-68
2021/12/23 07:16:29;;;;;;;35.70;17.65;;;;;;;-0.25;77.25;101200.16;5114358;28;20019;-67
2021/12/23 07:18:54;;;;;;;36.63;16.95;;;;;;;-0.27;76.83;101193.94;5114367;28;20024;-68
2021/12/23 07:21:20;;;;;;;37.38;17.58;;;;;;;-0.27;77.20;101197.44;5113567;28;20035;-68
2021/12/23 07:23:45;;;;;;;33.05;16.52;;;;;;;-0.22;77.42;101196.81;5114198;28;20123;-68
2021/12/23 07:26:11;;;;;;;36.92;16.98;;;;;;;-0.22;77.55;101197.72;5114197;28;20472;-67
2021/12/23 07:28:36;;;;;;;33.67;16.95;;;;;;;-0.30;77.85;101175.59;5114260;28;20376;-68
2021/12/23 07:31:02;;;;;;;32.55;16.33;;;;;;;-0.20;77.62;101184.84;5114190;28;20127;-67
2021/12/23 07:33:27;;;;;;;35.53;16.98;;;;;;;-0.12;77.48;101196.59;5114136;28;20020;-67
2021/12/23 07:35:53;;;;;;;34.95;16.80;;;;;;;-0.11;77.85;101190.56;5114023;28;20027;-67
2021/12/23 07:38:18;;;;;;;35.28;16.98;;;;;;;-0.04;77.30;101210.91;5114002;28;20019;-67
2021/12/23 07:40:44;;;;;;;41.60;17.88;;;;;;;-0.01;78.24;101204.19;5095383;28;20035;-67
2021/12/23 07:43:20;;;;;;;36.63;18.23;;;;;;;0.07;77.82;101206.34;5114131;28;20020;-68
2021/12/23 07:45:46;;;;;;;32.83;16.20;;;;;;;0.07;77.38;101196.84;5113822;28;20538;-67
2021/12/23 07:48:11;;;;;;;33.35;18.20;;;;;;;0.12;77.73;101205.78;5113818;28;20055;-67
2021/12/23 07:50:37;;;;;;;29.00;14.88;;;;;;;0.16;77.12;101196.47;5113777;28;20034;-67
2021/12/23 07:53:03;;;;;;;37.38;20.10;;;;;;;0.12;77.69;101190.19;5095697;28;20023;-67
2021/12/23 07:55:29;;;;;;;32.33;16.80;;;;;;;0.05;77.37;101182.88;5113247;28;20020;-68
2021/12/23 07:57:54;;;;;;;31.35;15.77;;;;;;;0.17;76.91;101193.06;5113269;28;20096;-67
2021/12/23 08:00:20;;;;;;;31.20;16.17;;;;;;;0.21;77.09;101198.56;5113485;28;20511;-67
2021/12/23 08:02:46;;;;;;;40.28;21.23;;;;;;;0.14;77.89;101170.41;5113381;28;20039;-68
2021/12/23 08:05:11;;;;;;;30.88;15.85;;;;;;;0.25;76.85;101184.00;5113161;28;20032;-68
2021/12/23 08:07:37;;;;;;;31.27;16.60;;;;;;;0.25;77.42;101179.69;5112787;28;20023;-67
2021/12/23 08:10:03;;;;;;;34.63;16.10;;;;;;;0.33;76.84;101177.56;5112871;28;20020;-67
2021/12/23 08:12:29;;;;;;;31.60;16.00;;;;;;;0.29;77.19;101178.19;5112727;28;20115;-67
2021/12/23 08:14:54;;;;;;;35.00;16.02;;;;;;;0.30;77.24;101179.06;5113121;28;20063;-67
2021/12/23 08:17:19;;;;;;;33.10;15.63;;;;;;;0.23;77.46;101178.72;5112830;28;20025;-67
2021/12/23 08:19:45;;;;;;;33.00;17.02;;;;;;;0.18;77.18;101177.59;5113082;28;20384;-67
2021/12/23 08:22:10;;;;;;;34.30;16.92;;;;;;;0.22;77.48;101181.25;5113099;28;20496;-67
2021/12/23 08:24:38;;;;;;;32.42;17.02;;;;;;;0.21;77.29;101175.16;5112897;28;20491;-69
2021/12/23 08:27:06;;;;;;;34.00;17.70;;;;;;;0.22;78.14;101171.75;5112707;28;20032;-67
2021/12/23 08:29:31;;;;;;;34.25;17.23;;;;;;;0.25;77.73;101176.22;5112678;28;20028;-67
2021/12/23 08:31:58;;;;;;;31.92;16.08;;;;;;;0.24;77.60;101162.31;5113299;28;20046;-67
2021/12/23 08:34:24;;;;;;;34.05;16.85;;;;;;;0.28;77.54;101159.91;5116539;28;20028;-68
2021/12/23 08:36:51;;;;;;;33.20;15.82;;;;;;;0.35;77.55;101160.34;5116764;28;20024;-68
2021/12/23 08:39:19;;;;;;;29.15;15.73;;;;;;;0.37;77.31;101150.03;5116714;28;20027;-68
2021/12/23 08:41:45;;;;;;;28.73;14.90;;;;;;;0.43;77.21;101151.28;5116681;28;20555;-67
2021/12/23 08:44:11;;;;;;;38.30;17.25;;;;;;;0.43;77.02;101151.28;5116713;28;20063;-67
2021/12/23 08:46:36;;;;;;;33.90;17.35;;;;;;;0.46;76.53;101146.25;5116762;28;20542;-67
2021/12/23 08:49:03;;;;;;;30.30;15.65;;;;;;;0.45;76.70;101134.06;5116636;28;20020;-68
2021/12/23 08:51:29;;;;;;;35.70;16.02;;;;;;;0.51;77.00;101136.09;5116543;28;20055;-67
2021/12/23 08:53:54;;;;;;;36.58;17.08;;;;;;;0.54;76.96;101131.06;5116617;28;20444;-67
2021/12/23 08:56:19;;;;;;;32.60;16.52;;;;;;;0.55;76.42;101130.25;5115940;28;20024;-67
2021/12/23 08:58:45;;;;;;;34.42;15.65;;;;;;;0.57;76.47;101123.44;5098231;28;20016;-68
2021/12/23 09:01:11;;;;;;;32.72;16.63;;;;;;;0.53;76.58;101116.28;5116359;28;20433;-67
2021/12/23 09:03:36;;;;;;;33.80;16.70;;;;;;;0.59;76.20;101123.53;5116478;28;20094;-68
2021/12/23 09:06:04;;;;;;;29.30;15.13;;;;;;;0.60;76.57;101131.44;5116415;28;20464;-67
2021/12/23 09:08:30;;;;;;;34.05;16.92;;;;;;;0.62;76.64;101127.19;5116361;28;20063;-67
2021/12/23 09:10:58;;;;;;;32.70;16.80;;;;;;;0.64;76.86;101125.59;5115989;28;20024;-67
2021/12/23 09:13:30;;;;;;;33.75;17.00;;;;;;;0.63;76.83;101115.09;5116298;28;20080;-67
2021/12/23 09:15:57;;;;;;;30.23;15.82;;;;;;;0.63;76.47;101110.78;5116152;28;20027;-68
2021/12/23 09:18:23;;;;;;;33.85;16.70;;;;;;;0.66;77.18;101115.25;5116127;28;20020;-68
2021/12/23 09:20:49;;;;;;;37.17;17.60;;;;;;;0.65;76.97;101110.88;5116150;28;20092;-68
2021/12/23 09:23:16;;;;;;;34.03;16.77;;;;;;;0.77;76.71;101131.44;5115995;28;20476;-68
2021/12/23 09:25:42;;;;;;;34.80;17.42;;;;;;;0.79;76.59;101128.13;5115947;28;20023;-67
2021/12/23 09:33:34;;;;;;;32.38;16.42;;;;;;;0.93;76.17;101118.44;5116242;28;20030;-67
2021/12/23 09:36:00;;;;;;;;;;;;;;;0.98;76.05;101120.47;5116333;28;20028;-68
2021/12/23 09:38:28;;;;;;;35.67;17.23;;;;;;;0.90;76.64;101110.47;5115621;28;20245;-67
2021/12/23 09:41:00;;;;;;;32.75;16.77;;;;;;;0.93;77.25;101115.84;5115493;28;20045;-68
2021/12/23 09:43:27;;;;;;;30.63;16.20;;;;;;;0.96;77.15;101111.72;5115546;28;20024;-69
2021/12/23 09:45:53;;;;;;;34.03;17.27;;;;;;;0.94;76.52;101102.94;5115535;28;20385;-70
2021/12/23 09:48:21;;;;;;;36.45;17.98;;;;;;;0.95;77.09;101096.91;5115779;28;20051;-70
2021/12/23 09:50:48;;;;;;;36.40;17.67;;;;;;;0.98;76.54;101090.97;5115726;28;20042;-69
2021/12/23 09:53:21;;;;;;;34.90;17.80;;;;;;;0.99;76.96;101093.66;5115761;28;20089;-68
2021/12/23 09:55:46;;;;;;;;;;;;;;;1.00;76.15;101087.66;5115809;28;20028;-68
2021/12/23 09:58:11;;;;;;;35.63;18.40;;;;;;;0.90;76.95;101080.19;5115538;28;19995;-68
2021/12/23 10:00:44;;;;;;;35.13;16.42;;;;;;;0.86;77.01;101083.44;5115286;28;20077;-67
2021/12/23 10:03:09;;;;;;;33.72;16.73;;;;;;;0.89;77.51;101086.16;5115509;28;20028;-67
2021/12/23 10:05:36;;;;;;;36.45;17.58;;;;;;;0.88;77.61;101080.91;5115289;28;20361;-67
2021/12/23 10:08:04;;;;;;;35.60;17.63;;;;;;;0.88;77.47;101063.56;5115389;28;20024;-67
2021/12/23 10:11:10;;;;;;;36.70;19.23;;;;;;;0.93;77.72;101072.50;5115194;28;20047;-67
2021/12/23 10:38:37;;;;;;;35.10;16.60;;;;;;;1.09;78.40;101006.56;5114569;28;20027;-66
2021/12/23 10:41:26;;;;;;;34.58;17.83;;;;;;;1.24;77.86;101006.44;5114726;28;20049;-67
2021/12/23 10:43:56;;;;;;;37.67;18.60;;;;;;;1.30;78.49;100995.47;5114524;28;20024;-68
2021/12/23 10:46:28;;;;;;;37.20;18.05;;;;;;;1.35;78.18;100991.38;5114386;28;20028;-69
2021/12/23 10:49:30;;;;;;;34.33;16.92;;;;;;;1.42;77.37;100988.28;5114591;28;20482;-67
2021/12/23 10:52:15;;;;;;;33.83;17.23;;;;;;;1.46;77.68;100987.59;5114663;28;20059;-68
2021/12/23 11:00:35;;;;;;;35.88;16.40;;;;;;;1.63;77.36;100983.22;5114242;28;20465;-67
2021/12/23 11:03:19;;;;;;;37.25;17.63;;;;;;;1.70;78.24;100973.16;5096032;28;20062;-67
2021/12/23 11:05:57;;;;;;;38.22;17.85;;;;;;;1.75;78.71;100958.63;5113996;28;20455;-67
2021/12/23 11:08:35;;;;;;;35.25;16.95;;;;;;;1.80;78.08;100942.31;5096610;28;20464;-69
2021/12/23 11:43:51;;;;;;;34.85;16.88;;;;;;;3.00;76.78;100893.00;5089975;28;20040;-66
2021/12/23 11:46:29;;;;;;;32.55;15.68;;;;;;;3.11;76.05;100895.16;5089643;28;20056;-65
2021/12/23 11:48:56;;;;;;;33.67;16.80;;;;;;;3.18;76.12;100887.63;5089535;28;20032;-66
2021/12/23 11:51:43;;;;;;;30.45;15.80;;;;;;;3.28;76.20;100888.91;5071535;28;20024;-66
2021/12/23 11:54:12;;;;;;;37.78;17.00;;;;;;;3.33;75.26;100887.34;5089361;28;20048;-68
2021/12/23 11:56:45;;;;;;;33.35;16.10;;;;;;;3.39;75.41;100884.13;5089251;28;20085;-69
2021/12/23 11:59:13;;;;;;;35.45;16.42;;;;;;;3.42;75.52;100872.03;5089239;28;20134;-68
2021/12/23 12:01:48;;;;;;;38.38;18.42;;;;;;;3.49;75.52;100865.34;5089313;28;20029;-68
2021/12/23 12:04:21;;;;;;;41.15;18.02;;;;;;;3.54;75.45;100858.59;5089157;28;20029;-68
2021/12/23 12:06:50;;;;;;;35.00;16.80;;;;;;;3.60;75.41;100853.63;5088800;28;20028;-68
2021/12/23 12:09:28;;;;;;;36.40;17.80;;;;;;;3.68;75.27;100844.34;5089064;28;20523;-66
2021/12/23 12:12:09;;;;;;;31.17;15.68;;;;;;;3.81;74.55;100852.63;5089396;28;20025;-69
2021/12/23 12:14:42;;;;;;;30.77;14.82;;;;;;;3.84;75.07;100851.03;5088825;28;20024;-67
2021/12/23 12:17:26;;;;;;;36.42;15.65;;;;;;;3.89;74.73;100859.03;5088685;28;20027;-67
2021/12/23 12:19:59;;;;;;;30.83;15.40;;;;;;;3.87;74.28;100839.81;5068543;28;20128;-66
2021/12/23 12:22:55;;;;;;;33.13;16.70;;;;;;;3.86;75.01;100833.72;5068690;28;20210;-65
2021/12/23 12:25:30;;;;;;;34.00;16.30;;;;;;;3.83;75.34;100817.00;5068537;28;20109;-66
2021/12/23 12:28:00;;;;;;;32.35;15.32;;;;;;;3.87;75.61;100819.78;5068504;28;20059;-66
2021/12/23 12:30:34;;;;;;;33.13;16.98;;;;;;;3.92;75.57;100804.28;5056272;28;20029;-66
2021/12/23 12:33:23;;;;;;;32.88;16.25;;;;;;;3.95;75.37;100805.28;5055248;28;20040;-65